sensor_id;sensor_type;location;lat;lon;timestamp;temperature;humidity
65419;DHT22;52027;50.658;14.004;2022-07-29T00:02:19;28.55;31.13
65419;DHT22;52027;50.658;14.004;2022-07-29T00:04:45;28.57;31.15
65419;DHT22;52027;50.658;14.004;2022-07-29T00:07:10;28.57;31.13
65419;DHT22;52027;50.658;14.004;2022-07-29T00:09:35;28.55;31.10
65419;DHT22;52027;50.658;14.004;2022-07-29T00:12:01;28.55;31.12
65419;DHT22;52027;50.658;14.004;2022-07-29T00:14:28;28.54;31.19
65419;DHT22;52027;50.658;14.004;2022-07-29T00:16:53;28.55;31.19
65419;DHT22;52027;50.658;14.004;2022-07-29T00:19:18;28.52;31.19
65419;DHT22;52027;50.658;14.004;2022-07-29T00:21:44;28.54;31.19
65419;DHT22;52027;50.658;14.004;2022-07-29T00:24:09;28.52;31.19
65419;DHT22;52027;50.658;14.004;2022-07-29T00:26:35;28.51;31.27
65419;DHT22;52027;50.658;14.004;2022-07-29T00:29:03;28.51;31.21
65419;DHT22;52027;50.658;14.004;2022-07-29T00:31:28;28.52;31.24
65419;DHT22;52027;50.658;14.004;2022-07-29T00:33:54;28.49;31.24
65419;DHT22;52027;50.658;14.004;2022-07-29T00:36:19;28.52;31.30
65419;DHT22;52027;50.658;14.004;2022-07-29T00:38:47;28.51;31.26
65419;DHT22;52027;50.658;14.004;2022-07-29T00:41:12;28.51;31.34
65419;DHT22;52027;50.658;14.004;2022-07-29T00:43:37;28.48;31.30
65419;DHT22;52027;50.658;14.004;2022-07-29T00:46:03;28.49;31.37
65419;DHT22;52027;50.658;14.004;2022-07-29T00:48:28;28.49;31.37
65419;DHT22;52027;50.658;14.004;2022-07-29T00:50:55;28.48;31.35
65419;DHT22;52027;50.658;14.004;2022-07-29T00:53:23;28.48;31.41
65419;DHT22;52027;50.658;14.004;2022-07-29T00:55:50;28.51;31.37
65419;DHT22;52027;50.658;14.004;2022-07-29T00:58:15;28.49;31.43
65419;DHT22;52027;50.658;14.004;2022-07-29T01:00:40;28.48;31.37
65419;DHT22;52027;50.658;14.004;2022-07-29T01:03:07;28.47;31.46
65419;DHT22;52027;50.658;14.004;2022-07-29T01:05:33;28.45;31.43
65419;DHT22;52027;50.658;14.004;2022-07-29T01:08:00;28.48;31.46
65419;DHT22;52027;50.658;14.004;2022-07-29T01:10:26;28.48;31.46
65419;DHT22;52027;50.658;14.004;2022-07-29T01:12:55;28.45;31.49
65419;DHT22;52027;50.658;14.004;2022-07-29T01:15:22;28.45;31.49
65419;DHT22;52027;50.658;14.004;2022-07-29T01:18:07;28.44;31.50
65419;DHT22;52027;50.658;14.004;2022-07-29T01:21:40;28.43;31.54
65419;DHT22;52027;50.658;14.004;2022-07-29T01:26:57;28.45;31.50
65419;DHT22;52027;50.658;14.004;2022-07-29T01:29:44;28.44;31.57
65419;DHT22;52027;50.658;14.004;2022-07-29T01:32:19;28.43;31.57
65419;DHT22;52027;50.658;14.004;2022-07-29T01:34:53;28.43;31.55
65419;DHT22;52027;50.658;14.004;2022-07-29T01:40:02;28.38;31.55
65419;DHT22;52027;50.658;14.004;2022-07-29T01:42:48;28.38;31.60
65419;DHT22;52027;50.658;14.004;2022-07-29T01:45:19;28.40;31.60
65419;DHT22;52027;50.658;14.004;2022-07-29T01:48:05;28.40;31.62
65419;DHT22;52027;50.658;14.004;2022-07-29T01:50:36;28.41;31.58
65419;DHT22;52027;50.658;14.004;2022-07-29T01:53:05;28.38;31.63
65419;DHT22;52027;50.658;14.004;2022-07-29T01:55:35;28.38;31.63
65419;DHT22;52027;50.658;14.004;2022-07-29T01:58:03;28.38;31.63
65419;DHT22;52027;50.658;14.004;2022-07-29T02:00:31;28.37;31.66
65419;DHT22;52027;50.658;14.004;2022-07-29T02:02:59;28.36;31.66
65419;DHT22;52027;50.658;14.004;2022-07-29T02:05:27;28.38;31.68
65419;DHT22;52027;50.658;14.004;2022-07-29T02:07:54;28.37;31.68
65419;DHT22;52027;50.658;14.004;2022-07-29T02:10:22;28.37;31.68
65419;DHT22;52027;50.658;14.004;2022-07-29T02:12:50;28.34;31.68
65419;DHT22;52027;50.658;14.004;2022-07-29T02:15:16;28.38;31.63
65419;DHT22;52027;50.658;14.004;2022-07-29T02:17:45;28.37;31.71
65419;DHT22;52027;50.658;14.004;2022-07-29T02:20:13;28.36;31.68
65419;DHT22;52027;50.658;14.004;2022-07-29T02:22:40;28.37;31.74
65419;DHT22;52027;50.658;14.004;2022-07-29T02:25:07;28.37;31.75
65419;DHT22;52027;50.658;14.004;2022-07-29T02:27:34;28.33;31.72
65419;DHT22;52027;50.658;14.004;2022-07-29T02:30:02;28.36;31.74
65419;DHT22;52027;50.658;14.004;2022-07-29T02:32:29;28.37;31.75
65419;DHT22;52027;50.658;14.004;2022-07-29T02:34:56;28.36;31.79
65419;DHT22;52027;50.658;14.004;2022-07-29T02:37:23;28.34;31.79
65419;DHT22;52027;50.658;14.004;2022-07-29T02:39:52;28.34;31.75
65419;DHT22;52027;50.658;14.004;2022-07-29T02:42:18;28.33;31.75
65419;DHT22;52027;50.658;14.004;2022-07-29T02:44:46;28.34;31.83
65419;DHT22;52027;50.658;14.004;2022-07-29T02:49:51;28.31;31.85
65419;DHT22;52027;50.658;14.004;2022-07-29T02:52:27;28.33;31.82
65419;DHT22;52027;50.658;14.004;2022-07-29T02:55:21;28.30;31.87
65419;DHT22;52027;50.658;14.004;2022-07-29T02:57:50;28.31;31.83
65419;DHT22;52027;50.658;14.004;2022-07-29T03:00:16;28.28;31.91
65419;DHT22;52027;50.658;14.004;2022-07-29T03:02:45;28.30;31.88
65419;DHT22;52027;50.658;14.004;2022-07-29T03:05:17;28.28;31.88
65419;DHT22;52027;50.658;14.004;2022-07-29T03:07:47;28.31;31.91
65419;DHT22;52027;50.658;14.004;2022-07-29T03:10:13;28.28;31.86
65419;DHT22;52027;50.658;14.004;2022-07-29T03:12:39;28.28;31.93
65419;DHT22;52027;50.658;14.004;2022-07-29T03:15:06;28.25;31.94
65419;DHT22;52027;50.658;14.004;2022-07-29T03:17:31;28.30;31.91
65419;DHT22;52027;50.658;14.004;2022-07-29T03:19:58;28.25;31.97
65419;DHT22;52027;50.658;14.004;2022-07-29T03:22:24;28.25;31.93
65419;DHT22;52027;50.658;14.004;2022-07-29T03:24:50;28.27;31.93
65419;DHT22;52027;50.658;14.004;2022-07-29T03:27:15;28.25;31.96
65419;DHT22;52027;50.658;14.004;2022-07-29T03:29:41;28.24;32.02
65419;DHT22;52027;50.658;14.004;2022-07-29T03:32:06;28.24;32.00
65419;DHT22;52027;50.658;14.004;2022-07-29T03:34:32;28.24;31.99
65419;DHT22;52027;50.658;14.004;2022-07-29T03:36:58;28.22;32.02
65419;DHT22;52027;50.658;14.004;2022-07-29T03:39:28;28.22;31.99
65419;DHT22;52027;50.658;14.004;2022-07-29T03:41:56;28.24;32.07
65419;DHT22;52027;50.658;14.004;2022-07-29T03:44:23;28.24;32.08
65419;DHT22;52027;50.658;14.004;2022-07-29T03:46:51;28.21;32.07
65419;DHT22;52027;50.658;14.004;2022-07-29T03:49:19;28.21;32.07
65419;DHT22;52027;50.658;14.004;2022-07-29T03:51:45;28.22;32.10
65419;DHT22;52027;50.658;14.004;2022-07-29T03:54:11;28.21;32.07
65419;DHT22;52027;50.658;14.004;2022-07-29T03:56:42;28.22;32.10
65419;DHT22;52027;50.658;14.004;2022-07-29T03:59:12;28.21;32.13
65419;DHT22;52027;50.658;14.004;2022-07-29T04:01:38;28.21;32.19
65419;DHT22;52027;50.658;14.004;2022-07-29T04:04:04;28.20;32.18
65419;DHT22;52027;50.658;14.004;2022-07-29T04:06:40;28.18;32.24
65419;DHT22;52027;50.658;14.004;2022-07-29T04:09:07;28.20;32.19
65419;DHT22;52027;50.658;14.004;2022-07-29T04:11:32;28.18;32.30
65419;DHT22;52027;50.658;14.004;2022-07-29T04:13:58;28.20;32.27
65419;DHT22;52027;50.658;14.004;2022-07-29T04:16:23;28.18;32.34
65419;DHT22;52027;50.658;14.004;2022-07-29T04:18:49;28.18;32.35
65419;DHT22;52027;50.658;14.004;2022-07-29T04:21:14;28.16;32.30
65419;DHT22;52027;50.658;14.004;2022-07-29T04:23:39;28.16;32.36
65419;DHT22;52027;50.658;14.004;2022-07-29T04:26:06;28.14;32.36
65419;DHT22;52027;50.658;14.004;2022-07-29T04:28:34;28.16;32.40
65419;DHT22;52027;50.658;14.004;2022-07-29T04:31:00;28.14;32.43
65419;DHT22;52027;50.658;14.004;2022-07-29T04:33:25;28.16;32.41
65419;DHT22;52027;50.658;14.004;2022-07-29T04:35:51;28.14;32.41
65419;DHT22;52027;50.658;14.004;2022-07-29T04:38:16;28.16;32.46
65419;DHT22;52027;50.658;14.004;2022-07-29T04:40:41;28.14;32.47
65419;DHT22;52027;50.658;14.004;2022-07-29T04:43:22;28.13;32.47
65419;DHT22;52027;50.658;14.004;2022-07-29T04:45:47;28.14;32.47
65419;DHT22;52027;50.658;14.004;2022-07-29T04:48:13;28.14;32.49
65419;DHT22;52027;50.658;14.004;2022-07-29T04:50:39;28.13;32.62
65419;DHT22;52027;50.658;14.004;2022-07-29T04:53:05;28.16;32.78
65419;DHT22;52027;50.658;14.004;2022-07-29T04:55:30;28.16;32.81
65419;DHT22;52027;50.658;14.004;2022-07-29T04:57:56;28.13;32.81
65419;DHT22;52027;50.658;14.004;2022-07-29T05:00:21;28.10;32.87
65419;DHT22;52027;50.658;14.004;2022-07-29T05:02:48;28.11;33.02
65419;DHT22;52027;50.658;14.004;2022-07-29T05:05:13;28.10;33.18
65419;DHT22;52027;50.658;14.004;2022-07-29T05:07:39;28.17;33.59
65419;DHT22;52027;50.658;14.004;2022-07-29T05:10:05;28.21;33.40
65419;DHT22;52027;50.658;14.004;2022-07-29T05:12:30;28.24;33.19
65419;DHT22;52027;50.658;14.004;2022-07-29T05:14:55;28.21;33.08
65419;DHT22;52027;50.658;14.004;2022-07-29T05:17:21;28.11;33.13
65419;DHT22;52027;50.658;14.004;2022-07-29T05:19:46;28.06;33.00
65419;DHT22;52027;50.658;14.004;2022-07-29T05:22:11;28.00;33.22
65419;DHT22;52027;50.658;14.004;2022-07-29T05:24:37;27.86;33.61
65419;DHT22;52027;50.658;14.004;2022-07-29T05:27:02;27.70;33.92
65419;DHT22;52027;50.658;14.004;2022-07-29T05:29:27;27.59;33.99
65419;DHT22;52027;50.658;14.004;2022-07-29T05:31:53;27.55;34.19
65419;DHT22;52027;50.658;14.004;2022-07-29T05:34:19;27.51;34.38
65419;DHT22;52027;50.658;14.004;2022-07-29T05:36:45;27.52;34.41
65419;DHT22;52027;50.658;14.004;2022-07-29T05:39:10;27.51;34.41
65419;DHT22;52027;50.658;14.004;2022-07-29T05:41:35;27.49;34.59
65419;DHT22;52027;50.658;14.004;2022-07-29T05:44:01;27.49;34.41
65419;DHT22;52027;50.658;14.004;2022-07-29T05:46:27;27.49;34.19
65419;DHT22;52027;50.658;14.004;2022-07-29T05:48:53;27.51;34.28
65419;DHT22;52027;50.658;14.004;2022-07-29T05:51:19;27.48;34.23
65419;DHT22;52027;50.658;14.004;2022-07-29T05:53:44;27.48;34.26
65419;DHT22;52027;50.658;14.004;2022-07-29T05:56:10;27.45;34.33
65419;DHT22;52027;50.658;14.004;2022-07-29T05:58:35;27.41;34.30
65419;DHT22;52027;50.658;14.004;2022-07-29T06:01:01;27.42;34.26
65419;DHT22;52027;50.658;14.004;2022-07-29T06:03:27;27.39;34.24
65419;DHT22;52027;50.658;14.004;2022-07-29T06:05:53;27.41;34.27
65419;DHT22;52027;50.658;14.004;2022-07-29T06:08:21;27.41;34.27
65419;DHT22;52027;50.658;14.004;2022-07-29T06:10:46;27.39;34.26
65419;DHT22;52027;50.658;14.004;2022-07-29T06:13:12;27.41;34.45
65419;DHT22;52027;50.658;14.004;2022-07-29T06:15:38;27.41;34.14
65419;DHT22;52027;50.658;14.004;2022-07-29T06:18:03;27.41;34.12
65419;DHT22;52027;50.658;14.004;2022-07-29T06:20:32;27.41;34.10
65419;DHT22;52027;50.658;14.004;2022-07-29T06:22:59;27.38;34.08
65419;DHT22;52027;50.658;14.004;2022-07-29T06:25:24;27.37;34.13
65419;DHT22;52027;50.658;14.004;2022-07-29T06:27:49;27.35;34.31
65419;DHT22;52027;50.658;14.004;2022-07-29T06:30:15;27.31;34.42
65419;DHT22;52027;50.658;14.004;2022-07-29T06:32:40;27.28;34.85
65419;DHT22;52027;50.658;14.004;2022-07-29T06:35:06;27.31;35.07
65419;DHT22;52027;50.658;14.004;2022-07-29T06:37:31;27.33;34.97
65419;DHT22;52027;50.658;14.004;2022-07-29T06:39:57;27.35;35.09
65419;DHT22;52027;50.658;14.004;2022-07-29T06:42:44;27.38;34.96
65419;DHT22;52027;50.658;14.004;2022-07-29T06:45:11;27.39;34.89
65419;DHT22;52027;50.658;14.004;2022-07-29T06:47:37;27.44;34.70
65419;DHT22;52027;50.658;14.004;2022-07-29T06:50:03;27.46;34.60
65419;DHT22;52027;50.658;14.004;2022-07-29T06:52:28;27.52;34.53
65419;DHT22;52027;50.658;14.004;2022-07-29T06:54:54;27.52;34.49
65419;DHT22;52027;50.658;14.004;2022-07-29T06:57:21;27.54;34.49
65419;DHT22;52027;50.658;14.004;2022-07-29T06:59:47;27.56;34.21
65419;DHT22;52027;50.658;14.004;2022-07-29T07:02:12;27.56;34.08
65419;DHT22;52027;50.658;14.004;2022-07-29T07:04:38;27.56;34.11
65419;DHT22;52027;50.658;14.004;2022-07-29T07:07:03;27.55;34.16
65419;DHT22;52027;50.658;14.004;2022-07-29T07:09:28;27.54;34.57
65419;DHT22;52027;50.658;14.004;2022-07-29T07:11:54;27.56;34.62
65419;DHT22;52027;50.658;14.004;2022-07-29T07:14:19;27.59;34.69
65419;DHT22;52027;50.658;14.004;2022-07-29T07:16:44;27.59;34.48
65419;DHT22;52027;50.658;14.004;2022-07-29T07:19:09;27.63;34.31
65419;DHT22;52027;50.658;14.004;2022-07-29T07:21:35;27.66;34.10
65419;DHT22;52027;50.658;14.004;2022-07-29T07:24:00;27.63;34.17
65419;DHT22;52027;50.658;14.004;2022-07-29T07:26:26;27.67;34.18
65419;DHT22;52027;50.658;14.004;2022-07-29T07:28:52;27.69;34.13
65419;DHT22;52027;50.658;14.004;2022-07-29T07:31:17;27.72;34.12
65419;DHT22;52027;50.658;14.004;2022-07-29T07:33:43;27.70;34.22
65419;DHT22;52027;50.658;14.004;2022-07-29T07:36:08;27.74;34.05
65419;DHT22;52027;50.658;14.004;2022-07-29T07:38:33;27.74;34.10
65419;DHT22;52027;50.658;14.004;2022-07-29T07:40:59;27.78;34.10
65419;DHT22;52027;50.658;14.004;2022-07-29T07:43:25;27.82;34.10
65419;DHT22;52027;50.658;14.004;2022-07-29T07:45:50;27.83;34.37
65419;DHT22;52027;50.658;14.004;2022-07-29T07:48:15;27.83;34.34
65419;DHT22;52027;50.658;14.004;2022-07-29T07:50:41;27.86;34.39
65419;DHT22;52027;50.658;14.004;2022-07-29T07:53:06;27.92;34.45
65419;DHT22;52027;50.658;14.004;2022-07-29T07:55:31;27.94;34.53
65419;DHT22;52027;50.658;14.004;2022-07-29T07:57:57;27.94;34.67
65419;DHT22;52027;50.658;14.004;2022-07-29T08:00:22;28.00;34.90
65419;DHT22;52027;50.658;14.004;2022-07-29T08:02:48;28.01;34.95
65419;DHT22;52027;50.658;14.004;2022-07-29T08:05:19;28.06;34.60
65419;DHT22;52027;50.658;14.004;2022-07-29T08:07:48;28.10;34.45
65419;DHT22;52027;50.658;14.004;2022-07-29T08:10:19;28.09;34.42
65419;DHT22;52027;50.658;14.004;2022-07-29T08:13:04;28.10;34.23
65419;DHT22;52027;50.658;14.004;2022-07-29T08:15:31;28.10;33.77
65419;DHT22;52027;50.658;14.004;2022-07-29T08:17:56;28.11;33.60
65419;DHT22;52027;50.658;14.004;2022-07-29T08:20:21;28.13;33.63
65419;DHT22;52027;50.658;14.004;2022-07-29T08:22:47;28.14;33.58
65419;DHT22;52027;50.658;14.004;2022-07-29T08:25:12;28.14;33.54
65419;DHT22;52027;50.658;14.004;2022-07-29T08:27:37;28.18;33.34
65419;DHT22;52027;50.658;14.004;2022-07-29T08:30:03;28.20;33.23
65419;DHT22;52027;50.658;14.004;2022-07-29T08:32:29;28.21;33.37
65419;DHT22;52027;50.658;14.004;2022-07-29T08:34:56;28.25;33.55
65419;DHT22;52027;50.658;14.004;2022-07-29T08:37:22;28.27;33.61
65419;DHT22;52027;50.658;14.004;2022-07-29T08:39:47;28.34;33.65
65419;DHT22;52027;50.658;14.004;2022-07-29T08:42:12;28.48;33.36
65419;DHT22;52027;50.658;14.004;2022-07-29T08:44:38;28.57;32.66
65419;DHT22;52027;50.658;14.004;2022-07-29T08:47:04;28.62;32.53
65419;DHT22;52027;50.658;14.004;2022-07-29T08:49:29;28.64;32.28
65419;DHT22;52027;50.658;14.004;2022-07-29T08:51:56;28.66;32.54
65419;DHT22;52027;50.658;14.004;2022-07-29T08:54:23;28.65;32.78
65419;DHT22;52027;50.658;14.004;2022-07-29T08:56:49;28.65;32.87
65419;DHT22;52027;50.658;14.004;2022-07-29T08:59:15;28.66;33.07
65419;DHT22;52027;50.658;14.004;2022-07-29T09:01:43;28.71;32.99
65419;DHT22;52027;50.658;14.004;2022-07-29T09:04:11;28.66;33.02
65419;DHT22;52027;50.658;14.004;2022-07-29T09:06:42;28.71;33.15
65419;DHT22;52027;50.658;14.004;2022-07-29T09:09:07;28.71;33.06
65419;DHT22;52027;50.658;14.004;2022-07-29T09:11:33;28.72;32.99
65419;DHT22;52027;50.658;14.004;2022-07-29T09:13:58;28.72;32.86
65419;DHT22;52027;50.658;14.004;2022-07-29T09:16:24;28.69;32.86
65419;DHT22;52027;50.658;14.004;2022-07-29T09:18:49;28.74;32.88
65419;DHT22;52027;50.658;14.004;2022-07-29T09:21:16;28.69;32.93
65419;DHT22;52027;50.658;14.004;2022-07-29T09:24:11;28.71;32.88
65419;DHT22;52027;50.658;14.004;2022-07-29T09:26:46;28.69;32.91
65419;DHT22;52027;50.658;14.004;2022-07-29T09:29:12;28.72;32.81
65419;DHT22;52027;50.658;14.004;2022-07-29T09:31:43;28.71;32.78
65419;DHT22;52027;50.658;14.004;2022-07-29T09:34:10;28.74;32.77
65419;DHT22;52027;50.658;14.004;2022-07-29T09:36:43;28.71;32.70
65419;DHT22;52027;50.658;14.004;2022-07-29T09:39:09;28.74;32.85
65419;DHT22;52027;50.658;14.004;2022-07-29T09:44:11;28.69;32.83
65419;DHT22;52027;50.658;14.004;2022-07-29T09:46:36;28.71;32.94
65419;DHT22;52027;50.658;14.004;2022-07-29T09:49:12;28.69;33.07
65419;DHT22;52027;50.658;14.004;2022-07-29T09:51:38;28.71;33.10
65419;DHT22;52027;50.658;14.004;2022-07-29T09:54:24;28.66;33.23
65419;DHT22;52027;50.658;14.004;2022-07-29T09:56:51;28.68;33.15
65419;DHT22;52027;50.658;14.004;2022-07-29T09:59:17;28.71;33.25
65419;DHT22;52027;50.658;14.004;2022-07-29T10:01:43;28.71;33.34
65419;DHT22;52027;50.658;14.004;2022-07-29T10:04:08;28.71;33.21
65419;DHT22;52027;50.658;14.004;2022-07-29T10:06:34;28.72;33.36
65419;DHT22;52027;50.658;14.004;2022-07-29T10:09:09;28.72;33.49
65419;DHT22;52027;50.658;14.004;2022-07-29T10:11:35;28.68;33.50
65419;DHT22;52027;50.658;14.004;2022-07-29T10:14:03;28.69;33.61
65419;DHT22;52027;50.658;14.004;2022-07-29T10:16:29;28.68;33.62
65419;DHT22;52027;50.658;14.004;2022-07-29T10:18:58;28.74;33.54
65419;DHT22;52027;50.658;14.004;2022-07-29T10:21:25;28.72;33.47
65419;DHT22;52027;50.658;14.004;2022-07-29T10:23:50;28.75;33.38
65419;DHT22;52027;50.658;14.004;2022-07-29T10:26:16;28.69;33.50
65419;DHT22;52027;50.658;14.004;2022-07-29T10:28:42;28.68;33.47
65419;DHT22;52027;50.658;14.004;2022-07-29T10:31:15;28.74;33.51
65419;DHT22;52027;50.658;14.004;2022-07-29T10:34:20;28.74;33.64
65419;DHT22;52027;50.658;14.004;2022-07-29T10:36:59;28.75;33.67
65419;DHT22;52027;50.658;14.004;2022-07-29T10:42:49;28.75;33.65
65419;DHT22;52027;50.658;14.004;2022-07-29T10:45:17;28.76;33.68
65419;DHT22;52027;50.658;14.004;2022-07-29T10:47:42;28.75;33.72
65419;DHT22;52027;50.658;14.004;2022-07-29T10:50:08;28.75;33.78
65419;DHT22;52027;50.658;14.004;2022-07-29T10:52:53;28.78;33.86
65419;DHT22;52027;50.658;14.004;2022-07-29T10:55:36;28.79;33.83
65419;DHT22;52027;50.658;14.004;2022-07-29T11:00:40;28.72;33.65
65419;DHT22;52027;50.658;14.004;2022-07-29T11:03:06;28.80;33.51
65419;DHT22;52027;50.658;14.004;2022-07-29T11:05:54;28.82;33.42
65419;DHT22;52027;50.658;14.004;2022-07-29T11:08:21;28.83;33.19
65419;DHT22;52027;50.658;14.004;2022-07-29T11:10:53;28.83;33.02
65419;DHT22;52027;50.658;14.004;2022-07-29T11:13:44;28.80;33.00
65419;DHT22;52027;50.658;14.004;2022-07-29T11:16:13;28.76;32.88
65419;DHT22;52027;50.658;14.004;2022-07-29T11:21:36;28.79;32.80
65419;DHT22;52027;50.658;14.004;2022-07-29T11:24:17;28.79;32.69
65419;DHT22;52027;50.658;14.004;2022-07-29T11:26:43;28.83;33.08
65419;DHT22;52027;50.658;14.004;2022-07-29T11:29:20;28.85;33.07
65419;DHT22;52027;50.658;14.004;2022-07-29T11:31:51;28.86;33.16
65419;DHT22;52027;50.658;14.004;2022-07-29T11:34:29;28.86;33.12
65419;DHT22;52027;50.658;14.004;2022-07-29T11:39:35;28.85;33.26
65419;DHT22;52027;50.658;14.004;2022-07-29T11:42:36;28.79;33.30
65419;DHT22;52027;50.658;14.004;2022-07-29T11:47:33;28.79;33.16
65419;DHT22;52027;50.658;14.004;2022-07-29T11:50:00;28.83;32.89
65419;DHT22;52027;50.658;14.004;2022-07-29T11:52:33;28.88;33.33
65419;DHT22;52027;50.658;14.004;2022-07-29T11:55:02;28.86;33.23
65419;DHT22;52027;50.658;14.004;2022-07-29T11:57:28;28.80;33.02
65419;DHT22;52027;50.658;14.004;2022-07-29T11:59:55;28.78;32.88
65419;DHT22;52027;50.658;14.004;2022-07-29T12:02:20;28.83;32.71
65419;DHT22;52027;50.658;14.004;2022-07-29T12:04:53;28.91;32.64
65419;DHT22;52027;50.658;14.004;2022-07-29T12:07:30;28.93;32.45
65419;DHT22;52027;50.658;14.004;2022-07-29T12:09:59;28.93;32.35
65419;DHT22;52027;50.658;14.004;2022-07-29T12:12:27;28.93;32.26
65419;DHT22;52027;50.658;14.004;2022-07-29T12:14:52;28.98;32.31
65419;DHT22;52027;50.658;14.004;2022-07-29T12:17:28;28.99;32.32
65419;DHT22;52027;50.658;14.004;2022-07-29T12:19:54;29.03;32.52
65419;DHT22;52027;50.658;14.004;2022-07-29T12:22:29;29.06;32.62
65419;DHT22;52027;50.658;14.004;2022-07-29T12:24:55;29.10;32.62
65419;DHT22;52027;50.658;14.004;2022-07-29T12:27:25;29.13;32.80
65419;DHT22;52027;50.658;14.004;2022-07-29T12:29:58;29.13;32.77
65419;DHT22;52027;50.658;14.004;2022-07-29T12:32:51;29.16;32.74
65419;DHT22;52027;50.658;14.004;2022-07-29T12:35:20;29.14;32.84
65419;DHT22;52027;50.658;14.004;2022-07-29T12:37:47;29.17;32.77
65419;DHT22;52027;50.658;14.004;2022-07-29T12:40:16;29.20;32.79
65419;DHT22;52027;50.658;14.004;2022-07-29T12:45:30;29.23;32.47
65419;DHT22;52027;50.658;14.004;2022-07-29T12:47:56;29.22;32.62
65419;DHT22;52027;50.658;14.004;2022-07-29T12:50:21;29.23;32.59
65419;DHT22;52027;50.658;14.004;2022-07-29T12:52:46;29.26;32.38
65419;DHT22;52027;50.658;14.004;2022-07-29T12:55:12;29.26;32.28
65419;DHT22;52027;50.658;14.004;2022-07-29T12:57:48;29.26;32.15
65419;DHT22;52027;50.658;14.004;2022-07-29T13:00:14;29.27;32.04
65419;DHT22;52027;50.658;14.004;2022-07-29T13:02:41;29.24;31.86
65419;DHT22;52027;50.658;14.004;2022-07-29T13:05:08;29.26;31.77
65419;DHT22;52027;50.658;14.004;2022-07-29T13:07:35;29.29;31.59
65419;DHT22;52027;50.658;14.004;2022-07-29T13:10:19;29.29;31.42
65419;DHT22;52027;50.658;14.004;2022-07-29T13:13:05;29.29;31.50
65419;DHT22;52027;50.658;14.004;2022-07-29T13:15:32;29.29;31.55
65419;DHT22;52027;50.658;14.004;2022-07-29T13:17:58;29.31;31.56
65419;DHT22;52027;50.658;14.004;2022-07-29T13:20:25;29.27;31.53
65419;DHT22;52027;50.658;14.004;2022-07-29T13:22:54;29.27;31.59
65419;DHT22;52027;50.658;14.004;2022-07-29T13:25:28;29.31;31.67
65419;DHT22;52027;50.658;14.004;2022-07-29T13:27:54;29.37;31.68
65419;DHT22;52027;50.658;14.004;2022-07-29T13:30:20;29.38;31.71
65419;DHT22;52027;50.658;14.004;2022-07-29T13:32:45;29.37;31.54
65419;DHT22;52027;50.658;14.004;2022-07-29T13:35:11;29.40;31.50
65419;DHT22;52027;50.658;14.004;2022-07-29T13:37:37;29.41;31.68
65419;DHT22;52027;50.658;14.004;2022-07-29T13:40:07;29.43;31.81
65419;DHT22;52027;50.658;14.004;2022-07-29T13:42:32;29.44;31.96
65419;DHT22;52027;50.658;14.004;2022-07-29T13:44:58;29.49;32.17
65419;DHT22;52027;50.658;14.004;2022-07-29T13:47:24;29.50;32.24
65419;DHT22;52027;50.658;14.004;2022-07-29T13:49:50;29.50;32.21
65419;DHT22;52027;50.658;14.004;2022-07-29T13:52:15;29.55;32.27
65419;DHT22;52027;50.658;14.004;2022-07-29T13:54:41;29.58;32.18
65419;DHT22;52027;50.658;14.004;2022-07-29T13:57:07;29.61;31.97
65419;DHT22;52027;50.658;14.004;2022-07-29T13:59:33;29.61;31.84
65419;DHT22;52027;50.658;14.004;2022-07-29T14:01:59;29.64;31.65
65419;DHT22;52027;50.658;14.004;2022-07-29T14:04:24;29.62;31.64
65419;DHT22;52027;50.658;14.004;2022-07-29T14:06:50;29.58;31.34
65419;DHT22;52027;50.658;14.004;2022-07-29T14:09:15;29.64;31.09
65419;DHT22;52027;50.658;14.004;2022-07-29T14:11:40;29.67;31.06
65419;DHT22;52027;50.658;14.004;2022-07-29T14:14:06;29.69;31.17
65419;DHT22;52027;50.658;14.004;2022-07-29T14:16:32;29.58;31.75
65419;DHT22;52027;50.658;14.004;2022-07-29T14:18:57;29.53;31.68
65419;DHT22;52027;50.658;14.004;2022-07-29T14:21:22;29.50;31.88
65419;DHT22;52027;50.658;14.004;2022-07-29T14:23:48;29.50;31.85
65419;DHT22;52027;50.658;14.004;2022-07-29T14:26:13;29.53;31.85
65419;DHT22;52027;50.658;14.004;2022-07-29T14:28:38;29.51;32.19
65419;DHT22;52027;50.658;14.004;2022-07-29T14:31:04;29.51;32.13
65419;DHT22;52027;50.658;14.004;2022-07-29T14:33:29;29.53;32.04
65419;DHT22;52027;50.658;14.004;2022-07-29T14:35:55;29.53;32.10
65419;DHT22;52027;50.658;14.004;2022-07-29T14:38:20;29.57;32.04
65419;DHT22;52027;50.658;14.004;2022-07-29T14:40:45;29.55;32.05
65419;DHT22;52027;50.658;14.004;2022-07-29T14:43:12;29.55;32.00
65419;DHT22;52027;50.658;14.004;2022-07-29T14:45:39;29.58;31.94
65419;DHT22;52027;50.658;14.004;2022-07-29T14:48:04;29.55;31.97
65419;DHT22;52027;50.658;14.004;2022-07-29T14:50:30;29.60;31.94
65419;DHT22;52027;50.658;14.004;2022-07-29T14:52:56;29.60;31.94
65419;DHT22;52027;50.658;14.004;2022-07-29T14:55:21;29.58;31.99
65419;DHT22;52027;50.658;14.004;2022-07-29T14:57:47;29.61;31.96
65419;DHT22;52027;50.658;14.004;2022-07-29T15:00:13;29.64;31.91
65419;DHT22;52027;50.658;14.004;2022-07-29T15:02:38;29.62;31.93
65419;DHT22;52027;50.658;14.004;2022-07-29T15:05:04;29.65;31.89
65419;DHT22;52027;50.658;14.004;2022-07-29T15:07:30;29.67;31.82
65419;DHT22;52027;50.658;14.004;2022-07-29T15:09:55;29.67;31.93
65419;DHT22;52027;50.658;14.004;2022-07-29T15:12:20;29.69;31.88
65419;DHT22;52027;50.658;14.004;2022-07-29T15:14:46;29.71;31.84
65419;DHT22;52027;50.658;14.004;2022-07-29T15:17:11;29.71;31.84
65419;DHT22;52027;50.658;14.004;2022-07-29T15:19:36;29.74;31.86
65419;DHT22;52027;50.658;14.004;2022-07-29T15:22:02;29.75;31.81
65419;DHT22;52027;50.658;14.004;2022-07-29T15:24:29;29.75;31.84
65419;DHT22;52027;50.658;14.004;2022-07-29T15:26:55;29.75;31.78
65419;DHT22;52027;50.658;14.004;2022-07-29T15:29:20;29.79;31.76
65419;DHT22;52027;50.658;14.004;2022-07-29T15:31:46;29.79;31.84
65419;DHT22;52027;50.658;14.004;2022-07-29T15:34:11;29.78;31.76
65419;DHT22;52027;50.658;14.004;2022-07-29T15:36:37;29.79;31.75
65419;DHT22;52027;50.658;14.004;2022-07-29T15:39:02;29.82;31.73
65419;DHT22;52027;50.658;14.004;2022-07-29T15:41:31;29.84;31.70
65419;DHT22;52027;50.658;14.004;2022-07-29T15:43:56;29.82;31.75
65419;DHT22;52027;50.658;14.004;2022-07-29T15:46:21;29.85;31.77
65419;DHT22;52027;50.658;14.004;2022-07-29T15:49:06;29.85;31.72